createdAt,value
2018-01-18T00:00:24.830Z,1.45
2018-01-18T00:02:51.182Z,1.25
2018-01-18T00:05:17.530Z,1.12
2018-01-18T00:07:44.635Z,1.37
2018-01-18T00:10:10.974Z,1.30
2018-01-18T00:12:37.303Z,1.30
2018-01-18T00:15:03.702Z,1.35
2018-01-18T00:17:30.031Z,3.20
2018-01-18T00:19:56.386Z,1.37
2018-01-18T00:22:22.746Z,1.20
2018-01-18T00:24:49.099Z,1.12
2018-01-18T00:27:16.186Z,1.40
2018-01-18T00:29:42.531Z,1.15
2018-01-18T00:32:08.892Z,0.88
2018-01-18T00:34:35.986Z,1.10
2018-01-18T00:37:02.366Z,1.27
2018-01-18T00:39:28.702Z,0.98
2018-01-18T00:41:55.061Z,1.67
2018-01-18T00:44:22.143Z,1.30
2018-01-18T00:46:48.502Z,1.83
2018-01-18T00:49:14.828Z,1.60
2018-01-18T00:51:41.686Z,1.70
2018-01-18T00:54:08.143Z,1.15
2018-01-18T00:56:35.339Z,0.80
2018-01-18T00:59:01.683Z,1.60
2018-01-18T01:01:28.034Z,1.20
2018-01-18T01:03:55.106Z,1.20
2018-01-18T01:06:22.199Z,0.98
2018-01-18T01:08:48.531Z,1.30
2018-01-18T01:11:14.872Z,1.27
2018-01-18T01:13:41.218Z,1.70
2018-01-18T01:16:07.562Z,1.25
2018-01-18T01:18:33.965Z,1.10
2018-01-18T01:21:00.286Z,1.25
2018-01-18T01:23:26.646Z,1.35
2018-01-18T01:25:52.990Z,2.00
2018-01-18T01:28:19.346Z,1.25
2018-01-18T01:30:46.455Z,1.62
2018-01-18T01:33:12.786Z,1.10
2018-01-18T01:35:39.122Z,1.77
2018-01-18T01:38:05.470Z,1.65
2018-01-18T01:40:31.782Z,0.90
2018-01-18T01:42:58.118Z,1.40
2018-01-18T01:45:25.459Z,1.48
2018-01-18T01:47:52.810Z,1.30
2018-01-18T01:50:19.179Z,1.15
2018-01-18T01:52:45.511Z,1.30
2018-01-18T01:55:11.856Z,1.55
2018-01-18T01:57:38.939Z,1.83
2018-01-18T02:00:05.282Z,1.30
2018-01-18T02:02:31.612Z,1.73
2018-01-18T02:04:59.996Z,1.52
2018-01-18T02:07:27.158Z,0.90
2018-01-18T02:09:53.533Z,2.00
2018-01-18T02:12:20.599Z,1.40
2018-01-18T02:14:46.959Z,1.52
2018-01-18T02:17:13.294Z,1.25
2018-01-18T02:19:39.683Z,1.05
2018-01-18T02:22:06.006Z,0.93
2018-01-18T02:24:33.094Z,0.80
2018-01-18T02:26:59.454Z,0.65
2018-01-18T02:29:25.835Z,0.80
2018-01-18T02:31:52.214Z,1.15
2018-01-18T02:34:18.566Z,1.95
2018-01-18T02:36:46.702Z,0.90
2018-01-18T02:39:13.046Z,1.75
2018-01-18T02:41:39.400Z,1.50
2018-01-18T02:44:06.496Z,1.23
2018-01-18T02:46:33.444Z,0.55
2018-01-18T02:48:59.774Z,1.30
2018-01-18T02:51:26.136Z,1.00
2018-01-18T02:53:53.323Z,1.35
2018-01-18T02:56:19.698Z,0.75
2018-01-18T02:58:46.030Z,1.87
2018-01-18T03:01:12.410Z,0.88
2018-01-18T03:03:39.697Z,1.60
2018-01-18T03:06:06.049Z,1.12
2018-01-18T03:08:33.071Z,0.80
2018-01-18T03:10:59.407Z,1.05
2018-01-18T03:13:25.767Z,0.90
2018-01-18T03:15:52.122Z,1.40
2018-01-18T03:18:18.493Z,1.35
2018-01-18T03:20:45.934Z,0.70
2018-01-18T03:23:13.006Z,0.80
2018-01-18T03:25:39.373Z,0.90
2018-01-18T03:28:05.734Z,0.80
2018-01-18T03:30:32.800Z,0.70
2018-01-18T03:32:59.158Z,0.90
2018-01-18T03:35:25.486Z,0.70
2018-01-18T03:37:51.823Z,0.80
2018-01-18T03:40:18.178Z,0.70
2018-01-18T03:42:44.531Z,0.62
2018-01-18T03:45:11.653Z,1.40
2018-01-18T03:47:38.003Z,0.73
2018-01-18T03:50:04.342Z,0.90
2018-01-18T03:52:31.434Z,1.42
2018-01-18T03:54:57.778Z,0.93
2018-01-18T03:57:24.142Z,1.33
2018-01-18T03:59:51.239Z,0.60
2018-01-18T04:02:17.566Z,0.77
2018-01-18T04:04:43.918Z,0.70
2018-01-18T04:07:12.002Z,1.10
2018-01-18T04:09:38.339Z,0.70
2018-01-18T04:12:04.734Z,0.82
2018-01-18T04:14:32.069Z,1.00
2018-01-18T04:17:00.163Z,1.05
2018-01-18T04:19:26.587Z,0.75
2018-01-18T04:21:52.962Z,1.02
2018-01-18T04:24:19.304Z,1.10
2018-01-18T04:26:45.663Z,0.95
2018-01-18T04:29:12.738Z,0.70
2018-01-18T04:31:39.111Z,0.95
2018-01-18T04:34:05.466Z,0.90
2018-01-18T04:36:31.810Z,0.95
2018-01-18T04:38:58.874Z,1.02
2018-01-18T04:41:25.325Z,0.60
2018-01-18T04:43:51.683Z,1.00
2018-01-18T04:46:18.615Z,1.10
2018-01-18T04:48:44.950Z,0.88
2018-01-18T04:51:11.336Z,0.57
2018-01-18T04:53:38.462Z,0.80
2018-01-18T04:56:04.850Z,0.60
2018-01-18T04:58:31.223Z,0.73
2018-01-18T05:00:57.566Z,0.95
2018-01-18T05:03:23.927Z,0.50
2018-01-18T05:05:51.034Z,0.90
2018-01-18T05:08:18.159Z,0.70
2018-01-18T05:10:44.512Z,0.65
2018-01-18T05:13:10.847Z,0.65
2018-01-18T05:15:37.771Z,0.73
2018-01-18T05:18:04.101Z,0.68
2018-01-18T05:20:30.450Z,0.80
2018-01-18T05:22:56.795Z,0.60
2018-01-18T05:25:23.130Z,0.40
2018-01-18T05:27:50.210Z,0.77
2018-01-18T05:30:17.322Z,0.60
2018-01-18T05:32:43.690Z,0.70
2018-01-18T05:35:10.030Z,0.90
2018-01-18T05:37:36.390Z,0.77
2018-01-18T05:40:02.783Z,1.50
2018-01-18T05:42:29.138Z,1.00
2018-01-18T05:44:55.487Z,0.70
2018-01-18T05:47:22.281Z,0.90
2018-01-18T05:49:49.393Z,0.73
2018-01-18T05:52:15.762Z,0.90
2018-01-18T05:54:42.850Z,0.62
2018-01-18T05:57:10.294Z,0.50
2018-01-18T05:59:36.638Z,0.47
2018-01-18T06:02:03.009Z,0.70
2018-01-18T06:04:30.354Z,0.47
2018-01-18T06:06:57.706Z,0.60
2018-01-18T06:09:24.071Z,0.70
2018-01-18T06:11:51.156Z,0.50
2018-01-18T06:14:17.483Z,0.43
2018-01-18T06:16:43.835Z,0.70
2018-01-18T06:19:10.163Z,0.60
2018-01-18T06:21:37.206Z,0.55
2018-01-18T06:24:03.543Z,0.40
2018-01-18T06:26:29.879Z,0.47
2018-01-18T06:28:56.207Z,0.50
2018-01-18T06:31:22.563Z,0.50
2018-01-18T06:33:48.914Z,0.40
2018-01-18T06:36:15.990Z,0.70
2018-01-18T06:38:42.804Z,0.40
2018-01-18T06:41:09.891Z,0.52
2018-01-18T06:43:36.222Z,0.47
2018-01-18T06:46:02.591Z,0.50
2018-01-18T06:48:28.920Z,0.50
2018-01-18T06:50:55.259Z,0.55
2018-01-18T06:53:21.580Z,0.47
2018-01-18T06:55:47.914Z,0.47
2018-01-18T06:58:14.277Z,0.60
2018-01-18T07:00:40.643Z,0.50
2018-01-18T07:03:07.810Z,0.70
2018-01-18T07:05:34.154Z,0.55
2018-01-18T07:08:00.470Z,0.65
2018-01-18T07:10:26.838Z,0.47
2018-01-18T07:12:53.902Z,0.30
2018-01-18T07:15:20.233Z,0.40
2018-01-18T07:17:46.550Z,0.35
2018-01-18T07:20:13.630Z,0.40
2018-01-18T07:22:39.983Z,0.50
2018-01-18T07:25:06.343Z,0.50
2018-01-18T07:27:32.702Z,0.35
2018-01-18T07:29:59.034Z,0.40
2018-01-18T07:32:25.374Z,0.60
2018-01-18T07:34:51.732Z,0.30
2018-01-18T07:37:18.058Z,0.60
2018-01-18T07:39:44.379Z,0.50
2018-01-18T07:42:10.709Z,0.50
2018-01-18T07:44:37.142Z,0.40
2018-01-18T07:47:03.514Z,0.32
2018-01-18T07:49:29.865Z,0.60
2018-01-18T07:51:56.938Z,0.40
2018-01-18T07:54:24.010Z,0.43
2018-01-18T07:56:56.446Z,0.62
2018-01-18T07:59:22.795Z,0.30
2018-01-18T08:01:49.146Z,0.50
2018-01-18T08:04:23.288Z,0.32
2018-01-18T08:06:49.630Z,0.50
2018-01-18T08:09:15.958Z,0.50
2018-01-18T08:11:42.326Z,0.50
2018-01-18T08:14:08.738Z,0.30
2018-01-18T08:16:35.197Z,0.93
2018-01-18T08:19:02.274Z,0.30
2018-01-18T08:21:29.356Z,0.30
2018-01-18T08:23:55.730Z,0.30
2018-01-18T08:26:22.218Z,0.40
2018-01-18T08:28:48.655Z,0.30
2018-01-18T08:31:17.321Z,0.30
2018-01-18T08:33:43.749Z,0.32
2018-01-18T08:36:10.105Z,0.30
2018-01-18T08:38:36.435Z,0.30
2018-01-18T08:41:02.762Z,0.30
2018-01-18T08:43:29.107Z,0.30
2018-01-18T08:45:55.463Z,0.45
2018-01-18T08:48:21.819Z,0.40
2018-01-18T08:50:48.903Z,0.30
2018-01-18T08:53:15.252Z,0.40
2018-01-18T08:55:41.599Z,0.37
2018-01-18T08:58:07.935Z,0.20
2018-01-18T09:00:35.050Z,0.28
2018-01-18T09:03:01.379Z,0.30
2018-01-18T09:05:27.718Z,0.30
2018-01-18T09:07:54.078Z,0.43
2018-01-18T09:10:20.401Z,0.30
2018-01-18T09:12:46.731Z,0.30
2018-01-18T09:15:13.079Z,0.82
2018-01-18T09:17:40.194Z,0.30
2018-01-18T09:20:06.522Z,0.30
2018-01-18T09:22:32.879Z,0.40
2018-01-18T09:24:59.206Z,0.30
2018-01-18T09:27:25.534Z,0.30
2018-01-18T09:29:51.855Z,0.30
2018-01-18T09:32:18.578Z,0.40
2018-01-18T09:34:44.951Z,0.30
2018-01-18T09:37:11.261Z,0.40
2018-01-18T09:39:37.603Z,1.52
2018-01-18T09:42:03.947Z,0.30
2018-01-18T09:44:31.010Z,0.28
2018-01-18T09:46:58.127Z,0.20
2018-01-18T09:49:26.242Z,0.20
2018-01-18T09:51:53.627Z,0.30
2018-01-18T09:54:19.979Z,0.40
2018-01-18T09:56:46.322Z,0.20
2018-01-18T09:59:13.133Z,0.30
2018-01-18T10:01:40.168Z,0.30
2018-01-18T10:04:06.525Z,0.37
2018-01-18T10:06:32.872Z,0.30
2018-01-18T10:08:59.218Z,0.30
2018-01-18T10:11:26.326Z,0.30
2018-01-18T10:13:52.650Z,0.30
2018-01-18T10:16:19.014Z,0.30
2018-01-18T10:18:46.826Z,0.35
2018-01-18T10:21:13.187Z,0.30
2018-01-18T10:23:39.542Z,0.40
2018-01-18T10:26:05.887Z,0.30
2018-01-18T10:28:32.946Z,0.30
2018-01-18T10:31:00.076Z,0.20
2018-01-18T10:33:26.454Z,0.45
2018-01-18T10:35:52.799Z,0.50
2018-01-18T10:38:19.163Z,0.95
2018-01-18T10:40:45.516Z,0.30
2018-01-18T10:43:12.615Z,0.40
2018-01-18T10:45:38.971Z,0.30
2018-01-18T10:48:05.301Z,0.30
2018-01-18T10:50:32.639Z,0.32
2018-01-18T10:52:58.967Z,0.30
2018-01-18T10:55:25.334Z,0.40
2018-01-18T10:57:51.684Z,0.30
2018-01-18T11:00:19.822Z,0.30
2018-01-18T11:02:46.147Z,0.30
2018-01-18T11:05:12.542Z,0.40
2018-01-18T11:07:38.887Z,0.30
2018-01-18T11:10:05.250Z,0.30
2018-01-18T11:12:31.600Z,0.30
2018-01-18T11:14:58.702Z,0.20
2018-01-18T11:17:25.030Z,0.20
2018-01-18T11:19:51.374Z,0.30
2018-01-18T11:22:17.706Z,0.30
2018-01-18T11:24:44.055Z,0.30
2018-01-18T11:27:10.379Z,0.30
2018-01-18T11:29:36.741Z,0.20
2018-01-18T11:32:03.839Z,0.20
2018-01-18T11:34:30.201Z,0.40
2018-01-18T11:36:56.547Z,0.28
2018-01-18T11:39:22.958Z,0.20
2018-01-18T11:41:50.344Z,0.20
2018-01-18T11:44:17.438Z,0.50
2018-01-18T11:46:43.767Z,0.30
2018-01-18T11:49:10.130Z,0.30
2018-01-18T11:51:36.453Z,0.30
2018-01-18T11:54:02.801Z,0.30
2018-01-18T11:56:29.889Z,0.30
2018-01-18T11:58:56.265Z,0.30
2018-01-18T12:01:22.598Z,0.20
2018-01-18T12:03:48.927Z,0.20
2018-01-18T12:06:15.274Z,0.30
2018-01-18T12:08:42.352Z,0.30
2018-01-18T12:11:08.744Z,0.20
2018-01-18T12:13:35.070Z,0.30
2018-01-18T12:16:01.406Z,0.47
2018-01-18T12:18:27.758Z,0.30
2018-01-18T12:20:54.842Z,0.30
2018-01-18T12:23:22.194Z,0.43
2018-01-18T12:25:48.532Z,0.65
2018-01-18T12:28:14.886Z,0.47
2018-01-18T12:30:41.263Z,0.30
2018-01-18T12:33:08.346Z,0.30
2018-01-18T12:35:34.688Z,0.20
2018-01-18T12:38:01.031Z,0.22
2018-01-18T12:40:27.375Z,0.20
2018-01-18T12:42:54.582Z,0.30
2018-01-18T12:45:20.922Z,0.40
2018-01-18T12:47:47.262Z,0.35
2018-01-18T12:50:13.622Z,0.30
2018-01-18T12:52:39.965Z,0.30
2018-01-18T12:55:07.049Z,0.30
2018-01-18T12:57:33.386Z,0.30
2018-01-18T12:59:59.730Z,0.40
2018-01-18T13:02:26.059Z,0.20
2018-01-18T13:04:52.439Z,0.30
2018-01-18T13:07:19.523Z,0.30
2018-01-18T13:09:45.891Z,0.25
2018-01-18T13:12:12.243Z,0.30
2018-01-18T13:14:39.345Z,0.30
2018-01-18T13:17:05.679Z,0.30
2018-01-18T13:19:33.048Z,0.30
2018-01-18T13:21:59.404Z,0.20
2018-01-18T13:24:25.806Z,0.30
2018-01-18T13:26:52.175Z,0.37
2018-01-18T13:29:19.278Z,0.30
2018-01-18T13:31:45.606Z,0.40
2018-01-18T13:34:11.955Z,0.30
2018-01-18T13:36:38.298Z,0.50
2018-01-18T13:39:04.637Z,0.30
2018-01-18T13:41:31.043Z,0.93
2018-01-18T13:43:57.386Z,0.40
2018-01-18T13:46:23.733Z,0.20
2018-01-18T13:48:50.058Z,0.28
2018-01-18T13:51:16.406Z,1.12
2018-01-18T13:53:43.486Z,0.65
2018-01-18T13:56:09.857Z,0.65
2018-01-18T13:58:36.206Z,1.35
2018-01-18T14:01:02.555Z,0.30
2018-01-18T14:03:29.655Z,0.50
2018-01-18T14:05:56.002Z,0.50
2018-01-18T14:08:24.878Z,0.50
2018-01-18T14:10:51.211Z,0.37
2018-01-18T14:13:17.562Z,0.30
2018-01-18T14:15:43.917Z,1.60
2018-01-18T14:18:11.002Z,0.70
2018-01-18T14:20:37.364Z,0.37
2018-01-18T14:23:04.471Z,0.40
2018-01-18T14:25:32.505Z,0.30
2018-01-18T14:27:59.574Z,0.73
2018-01-18T14:30:25.943Z,0.28
2018-01-18T14:32:52.270Z,0.50
2018-01-18T14:35:18.614Z,0.20
2018-01-18T14:37:44.958Z,0.65
2018-01-18T14:40:11.310Z,0.65
2018-01-18T14:42:38.407Z,0.30
2018-01-18T14:45:04.740Z,0.62
2018-01-18T14:47:31.075Z,0.30
2018-01-18T14:49:58.166Z,0.50
2018-01-18T14:52:25.247Z,0.30
2018-01-18T14:54:51.635Z,0.80
2018-01-18T14:57:18.015Z,0.30
2018-01-18T14:59:44.339Z,0.30
2018-01-18T15:02:10.702Z,0.40
2018-01-18T15:04:37.034Z,0.30
2018-01-18T15:07:03.379Z,0.50
2018-01-18T15:09:29.706Z,1.77
2018-01-18T15:11:56.038Z,0.65
2018-01-18T15:14:22.366Z,0.50
2018-01-18T15:16:48.715Z,0.85
2018-01-18T15:19:15.062Z,0.85
2018-01-18T15:21:42.139Z,0.70
2018-01-18T15:24:08.501Z,0.50
2018-01-18T15:26:34.830Z,0.32
2018-01-18T15:29:01.186Z,1.00
2018-01-18T15:31:27.578Z,0.40
2018-01-18T15:33:53.947Z,0.80
2018-01-18T15:36:20.314Z,1.25
2018-01-18T15:38:47.426Z,0.30
2018-01-18T15:41:13.774Z,1.45
2018-01-18T15:43:40.118Z,0.50
2018-01-18T15:46:07.202Z,0.40
2018-01-18T15:48:33.595Z,0.60
2018-01-18T15:51:01.275Z,0.40
2018-01-18T15:53:27.602Z,0.70
2018-01-18T15:55:53.969Z,0.30
2018-01-18T15:58:20.340Z,0.98
2018-01-18T16:00:47.739Z,0.60
2018-01-18T16:03:14.063Z,12.15
2018-01-18T16:05:40.439Z,16.55
2018-01-18T16:08:06.762Z,7.65
2018-01-18T16:10:33.126Z,2.75
2018-01-18T16:13:00.226Z,2.85
2018-01-18T16:15:26.590Z,3.60
2018-01-18T16:17:52.919Z,2.33
2018-01-18T16:20:19.266Z,3.85
2018-01-18T16:22:46.346Z,0.77
2018-01-18T16:25:12.728Z,0.43
2018-01-18T16:27:39.419Z,0.47
2018-01-18T16:30:05.771Z,0.50
2018-01-18T16:32:32.110Z,0.90
2018-01-18T16:34:58.509Z,0.30
2018-01-18T16:37:24.875Z,0.50
2018-01-18T16:39:51.258Z,0.50
2018-01-18T16:42:17.605Z,0.32
2018-01-18T16:44:43.963Z,0.45
2018-01-18T16:47:10.307Z,0.37
2018-01-18T16:49:36.699Z,0.40
2018-01-18T16:52:03.059Z,0.40
2018-01-18T16:54:29.478Z,0.40
2018-01-18T16:56:55.854Z,0.40
2018-01-18T16:59:22.194Z,0.65
2018-01-18T17:01:48.524Z,3.08
2018-01-18T17:04:15.824Z,1.25
2018-01-18T17:06:43.458Z,0.80
2018-01-18T17:09:10.074Z,0.60
2018-01-18T17:11:36.411Z,0.50
2018-01-18T17:14:04.506Z,0.93
2018-01-18T17:16:30.852Z,0.57
2018-01-18T17:18:57.174Z,0.52
2018-01-18T17:21:23.561Z,0.60
2018-01-18T17:23:49.909Z,0.60
2018-01-18T17:26:18.010Z,0.80
2018-01-18T17:28:44.357Z,0.40
2018-01-18T17:31:10.734Z,0.60
2018-01-18T17:33:37.067Z,0.40
2018-01-18T17:36:03.425Z,0.60
2018-01-18T17:38:30.800Z,0.32
2018-01-18T17:40:57.158Z,0.32
2018-01-18T17:43:23.520Z,0.40
2018-01-18T17:45:50.615Z,0.30
2018-01-18T17:48:16.947Z,0.50
2018-01-18T17:50:43.291Z,1.35
2018-01-18T17:53:09.621Z,2.92
2018-01-18T17:55:35.949Z,2.40
2018-01-18T17:58:02.333Z,3.35
2018-01-18T18:00:29.414Z,4.03
2018-01-18T18:02:55.760Z,1.85
2018-01-18T18:05:22.133Z,2.78
2018-01-18T18:07:48.479Z,1.40
2018-01-18T18:10:15.546Z,0.73
2018-01-18T18:12:41.876Z,0.70
2018-01-18T18:15:08.217Z,0.90
2018-01-18T18:17:34.539Z,0.77
2018-01-18T18:20:00.913Z,1.17
2018-01-18T18:22:27.266Z,0.40
2018-01-18T18:24:53.603Z,0.90
2018-01-18T18:27:20.710Z,0.90
2018-01-18T18:29:47.079Z,0.40
2018-01-18T18:32:14.198Z,3.05
2018-01-18T18:34:40.526Z,1.35
2018-01-18T18:37:06.851Z,0.60
2018-01-18T18:39:33.182Z,0.60
2018-01-18T18:41:59.507Z,0.70
2018-01-18T18:44:25.850Z,0.70
2018-01-18T18:46:52.187Z,1.52
2018-01-18T18:49:18.518Z,0.68
2018-01-18T18:51:44.854Z,0.70
2018-01-18T18:54:11.206Z,0.50
2018-01-18T18:56:38.295Z,1.20
2018-01-18T18:59:04.632Z,0.80
2018-01-18T19:01:30.971Z,0.40
2018-01-18T19:03:57.904Z,0.60
2018-01-18T19:06:24.255Z,0.60
2018-01-18T19:08:50.612Z,0.90
2018-01-18T19:11:16.956Z,0.73
2018-01-18T19:13:43.286Z,0.90
2018-01-18T19:16:09.608Z,1.37
2018-01-18T19:18:35.976Z,0.50
2018-01-18T19:21:02.330Z,0.62
2018-01-18T19:23:28.678Z,0.80
2018-01-18T19:25:54.998Z,0.30
2018-01-18T19:28:21.385Z,0.60
2018-01-18T19:30:48.473Z,0.40
2018-01-18T19:33:14.822Z,0.32
2018-01-18T19:35:41.150Z,0.40
2018-01-18T19:38:07.507Z,0.35
2018-01-18T19:40:33.851Z,0.68
2018-01-18T19:43:01.958Z,0.40
2018-01-18T19:45:28.282Z,0.40
2018-01-18T19:47:54.602Z,0.60
2018-01-18T19:50:21.738Z,0.40
2018-01-18T19:52:48.828Z,0.45
2018-01-18T19:55:15.182Z,0.77
2018-01-18T19:57:42.522Z,0.57
2018-01-18T20:00:13.591Z,0.55
2018-01-18T20:02:39.930Z,0.60
2018-01-18T20:05:06.283Z,0.75
2018-01-18T20:07:33.366Z,0.60
2018-01-18T20:09:59.691Z,6.30
2018-01-18T20:12:26.051Z,1.10
2018-01-18T20:14:52.378Z,1.40
2018-01-18T20:17:18.714Z,1.65
2018-01-18T20:19:45.039Z,1.37
2018-01-18T20:22:11.371Z,5.18
2018-01-18T20:24:37.714Z,0.65
2018-01-18T20:27:04.078Z,1.20
2018-01-18T20:29:31.194Z,3.45
2018-01-18T20:31:57.510Z,0.80
2018-01-18T20:34:23.850Z,2.90
2018-01-18T20:36:50.231Z,0.77
2018-01-18T20:39:16.623Z,0.90
2018-01-18T20:41:42.967Z,0.77
2018-01-18T20:44:09.290Z,0.75
2018-01-18T20:46:35.643Z,0.60
2018-01-18T20:49:02.737Z,1.10
2018-01-18T20:51:29.065Z,1.62
2018-01-18T20:53:55.482Z,0.80
2018-01-18T20:56:21.815Z,3.20
2018-01-18T20:58:48.158Z,0.90
2018-01-18T21:01:14.489Z,1.23
2018-01-18T21:03:40.875Z,1.60
2018-01-18T21:06:07.943Z,1.08
2018-01-18T21:08:34.298Z,1.10
2018-01-18T21:11:00.687Z,0.90
2018-01-18T21:13:27.779Z,0.70
2018-01-18T21:15:54.133Z,1.20
2018-01-18T21:18:20.474Z,1.40
2018-01-18T21:20:46.807Z,0.90
2018-01-18T21:23:13.842Z,0.95
2018-01-18T21:25:40.187Z,0.98
2018-01-18T21:28:06.530Z,1.10
2018-01-18T21:30:33.621Z,0.90
2018-01-18T21:32:59.958Z,0.88
2018-01-18T21:35:26.310Z,0.62
2018-01-18T21:37:52.691Z,1.12
2018-01-18T21:40:19.790Z,1.98
2018-01-18T21:42:46.135Z,1.30
2018-01-18T21:45:12.490Z,0.85
2018-01-18T21:47:39.561Z,0.60
2018-01-18T21:50:06.658Z,0.68
2018-01-18T21:52:32.984Z,0.60
2018-01-18T21:54:59.359Z,0.77
2018-01-18T21:57:26.414Z,0.80
2018-01-18T21:59:52.759Z,0.65
2018-01-18T22:02:19.095Z,0.60
2018-01-18T22:04:45.450Z,1.00
2018-01-18T22:07:11.810Z,0.62
2018-01-18T22:09:38.931Z,0.62
2018-01-18T22:12:05.262Z,0.77
2018-01-18T22:14:31.605Z,0.93
2018-01-18T22:16:57.970Z,1.17
2018-01-18T22:19:25.059Z,0.57
2018-01-18T22:21:51.434Z,0.60
2018-01-18T22:24:17.774Z,0.50
2018-01-18T22:26:45.173Z,0.55
2018-01-18T22:29:11.520Z,0.85
2018-01-18T22:31:37.930Z,0.98
2018-01-18T22:34:04.270Z,2.17
2018-01-18T22:36:30.618Z,0.60
2018-01-18T22:38:56.996Z,0.80
2018-01-18T22:41:24.129Z,0.60
2018-01-18T22:43:51.279Z,0.52
2018-01-18T22:46:18.907Z,0.50
2018-01-18T22:48:45.267Z,0.57
2018-01-18T22:51:11.618Z,1.15
2018-01-18T22:53:38.690Z,0.60
2018-01-18T22:56:05.060Z,1.27
2018-01-18T22:58:31.415Z,0.57
2018-01-18T23:00:58.546Z,0.60
2018-01-18T23:03:24.883Z,0.62
2018-01-18T23:05:51.222Z,0.90
2018-01-18T23:08:17.557Z,0.57
2018-01-18T23:10:44.676Z,0.62
2018-01-18T23:13:12.070Z,0.77
2018-01-18T23:15:39.162Z,0.60
2018-01-18T23:18:05.503Z,0.80
2018-01-18T23:20:31.822Z,0.80
2018-01-18T23:22:58.146Z,0.50
2018-01-18T23:25:25.535Z,1.02
2018-01-18T23:27:51.890Z,1.12
2018-01-18T23:30:19.066Z,0.77
2018-01-18T23:32:45.409Z,0.70
2018-01-18T23:35:11.746Z,0.73
2018-01-18T23:37:38.126Z,0.62
2018-01-18T23:40:04.459Z,0.62
2018-01-18T23:42:30.798Z,0.70
2018-01-18T23:44:57.877Z,0.50
2018-01-18T23:47:24.227Z,0.90
2018-01-18T23:49:50.586Z,0.80
2018-01-18T23:52:16.938Z,1.10
2018-01-18T23:54:44.010Z,1.00
2018-01-18T23:57:10.354Z,0.82
2018-01-18T23:59:36.714Z,0.80
